createdAt,value
2023-04-18T00:03:05.114Z,6.88
2023-04-18T00:06:11.044Z,6.90
2023-04-18T00:09:20.462Z,6.95
2023-04-18T00:12:26.006Z,6.93
2023-04-18T00:15:32.582Z,6.91
2023-04-18T00:18:38.093Z,6.90
2023-04-18T00:21:45.214Z,6.80
2023-04-18T00:24:54.871Z,6.65
2023-04-18T00:28:01.581Z,6.70
2023-04-18T00:31:07.292Z,6.77
2023-04-18T00:34:13.797Z,6.85
2023-04-18T00:37:19.723Z,6.88
2023-04-18T00:40:30.944Z,6.93
2023-04-18T00:43:37.478Z,6.95
2023-04-18T00:46:44.154Z,6.90
2023-04-18T00:49:51.725Z,6.90
2023-04-18T00:53:00.033Z,6.80
2023-04-18T00:56:09.498Z,6.73
2023-04-18T00:59:17.599Z,6.77
2023-04-18T01:02:26.479Z,6.70
2023-04-18T01:05:33.260Z,6.74
2023-04-18T01:08:40.354Z,6.86
2023-04-18T01:11:49.420Z,6.88
2023-04-18T01:14:55.067Z,6.89
2023-04-18T01:18:03.849Z,6.91
2023-04-18T01:21:10.211Z,6.91
2023-04-18T01:24:24.964Z,6.92
2023-04-18T01:27:30.734Z,6.88
2023-04-18T01:30:39.823Z,6.85
2023-04-18T01:33:45.399Z,6.91
2023-04-18T01:36:52.194Z,6.89
2023-04-18T01:40:01.350Z,6.92
2023-04-18T01:43:07.682Z,6.90
2023-04-18T01:46:17.066Z,6.89
2023-04-18T01:49:23.393Z,6.79
2023-04-18T01:52:29.302Z,6.77
2023-04-18T01:55:38.370Z,6.85
2023-04-18T01:58:45.194Z,6.85
2023-04-18T02:01:52.454Z,6.87
2023-04-18T02:04:57.952Z,6.93
2023-04-18T02:08:04.503Z,6.90
2023-04-18T02:11:13.183Z,6.90
2023-04-18T02:14:20.129Z,6.87
2023-04-18T02:17:26.626Z,6.81
2023-04-18T02:20:35.209Z,6.90
2023-04-18T02:23:40.841Z,6.93
2023-04-18T02:26:50.030Z,6.92
2023-04-18T02:29:57.408Z,6.91
2023-04-18T02:33:04.013Z,6.88
2023-04-18T02:36:10.628Z,6.88
2023-04-18T02:39:16.944Z,6.88
2023-04-18T02:42:25.178Z,6.84
2023-04-18T02:45:32.975Z,6.79
2023-04-18T02:48:39.310Z,6.69
2023-04-18T02:51:47.024Z,6.70
2023-04-18T02:54:53.679Z,6.69
2023-04-18T02:58:08.060Z,6.74
2023-04-18T03:01:41.145Z,6.77
2023-04-18T03:04:52.800Z,6.83
2023-04-18T03:07:58.342Z,6.84
2023-04-18T03:11:05.134Z,6.90
2023-04-18T03:14:13.707Z,6.85
2023-04-18T03:17:28.305Z,6.92
2023-04-18T03:20:33.956Z,6.98
2023-04-18T03:23:40.475Z,6.94
2023-04-18T03:26:46.327Z,6.99
2023-04-18T03:29:56.026Z,6.97
2023-04-18T03:33:03.110Z,7.00
2023-04-18T03:36:10.893Z,7.03
2023-04-18T03:39:16.444Z,7.02
2023-04-18T03:42:23.510Z,7.00
2023-04-18T03:45:32.045Z,7.01
2023-04-18T03:48:39.265Z,7.03
2023-04-18T03:51:50.531Z,7.01
2023-04-18T03:54:57.808Z,7.05
2023-04-18T03:58:08.882Z,7.07
2023-04-18T04:01:18.329Z,7.00
2023-04-18T04:04:23.998Z,7.01
2023-04-18T04:07:30.673Z,7.03
2023-04-18T04:10:36.258Z,7.01
2023-04-18T04:13:43.232Z,7.13
2023-04-18T04:16:54.710Z,7.21
2023-04-18T04:20:02.109Z,7.24
2023-04-18T04:23:10.340Z,7.21
2023-04-18T04:26:18.800Z,7.17
2023-04-18T04:29:33.154Z,7.14
2023-04-18T04:32:44.972Z,7.16
2023-04-18T04:35:51.300Z,7.26
2023-04-18T04:38:57.785Z,7.34
2023-04-18T04:42:12.784Z,7.42
2023-04-18T04:45:29.768Z,7.47
2023-04-18T04:48:38.050Z,7.45
2023-04-18T04:51:44.631Z,7.44
2023-04-18T04:54:50.369Z,7.35
2023-04-18T04:57:58.786Z,7.26
2023-04-18T05:01:45.389Z,7.26
2023-04-18T05:04:54.661Z,7.28
2023-04-18T05:08:00.203Z,7.35
2023-04-18T05:11:07.372Z,7.44
2023-04-18T05:14:13.474Z,7.50
2023-04-18T05:17:20.029Z,7.54
2023-04-18T05:20:28.389Z,7.58
2023-04-18T05:23:37.351Z,7.59
2023-04-18T05:26:43.103Z,7.61
2023-04-18T05:29:50.604Z,7.63
2023-04-18T05:32:56.658Z,7.68
2023-04-18T05:36:05.826Z,7.71
2023-04-18T05:39:11.635Z,7.81
2023-04-18T05:42:18.212Z,7.79
2023-04-18T05:45:24.324Z,7.82
2023-04-18T05:48:31.299Z,7.82
2023-04-18T05:51:39.630Z,7.87
2023-04-18T05:54:46.014Z,7.96
2023-04-18T05:57:51.530Z,8.00
2023-04-18T06:00:58.221Z,8.04
2023-04-18T06:04:03.875Z,8.06
2023-04-18T06:07:13.440Z,8.20
2023-04-18T06:10:19.170Z,8.30
2023-04-18T06:13:25.719Z,8.44
2023-04-18T06:16:31.419Z,8.47
2023-04-18T06:19:37.754Z,8.49
2023-04-18T06:22:46.066Z,8.59
2023-04-18T06:25:52.621Z,8.68
2023-04-18T06:28:58.097Z,8.73
2023-04-18T06:32:04.824Z,8.72
2023-04-18T06:35:11.284Z,8.71
2023-04-18T06:38:20.607Z,8.69
2023-04-18T06:41:26.154Z,8.72
2023-04-18T06:44:32.561Z,8.84
2023-04-18T06:47:38.304Z,8.84
2023-04-18T06:50:45.162Z,8.83
2023-04-18T06:53:54.071Z,8.79
2023-04-18T06:57:00.492Z,8.70
2023-04-18T07:00:06.835Z,8.80
2023-04-18T07:03:14.641Z,9.00
2023-04-18T07:06:20.241Z,9.13
2023-04-18T07:09:31.057Z,9.29
2023-04-18T07:12:36.927Z,9.34
2023-04-18T07:15:43.360Z,9.31
2023-04-18T07:18:49.065Z,9.25
2023-04-18T07:21:56.275Z,9.16
2023-04-18T07:25:04.769Z,9.21
2023-04-18T07:28:11.229Z,9.18
2023-04-18T07:31:16.840Z,9.14
2023-04-18T07:34:23.372Z,9.12
2023-04-18T07:37:29.296Z,9.14
2023-04-18T07:40:38.591Z,9.03
2023-04-18T07:43:45.125Z,9.08
2023-04-18T07:47:12.777Z,9.16
2023-04-18T07:50:33.551Z,9.12
2023-04-18T07:53:44.118Z,9.18
2023-04-18T07:56:52.398Z,9.27
2023-04-18T07:59:58.737Z,9.36
2023-04-18T08:03:04.563Z,9.43
2023-04-18T08:06:11.199Z,9.57
2023-04-18T08:09:20.866Z,9.70
2023-04-18T08:12:30.108Z,9.67
2023-04-18T08:15:35.668Z,9.66
2023-04-18T08:18:41.973Z,9.70
2023-04-18T08:21:47.654Z,9.82
2023-04-18T08:25:04.310Z,9.97
2023-04-18T08:28:13.979Z,10.00
2023-04-18T08:31:32.880Z,9.91
2023-04-18T08:34:40.113Z,9.90
2023-04-18T08:37:46.612Z,9.88
2023-04-18T08:40:52.354Z,9.99
2023-04-18T08:44:02.056Z,10.16
2023-04-18T08:47:07.777Z,10.26
2023-04-18T08:50:14.672Z,10.40
2023-04-18T08:53:20.443Z,10.58
2023-04-18T08:56:27.583Z,10.67
2023-04-18T08:59:36.063Z,10.77
2023-04-18T09:02:47.452Z,10.88
2023-04-18T09:06:12.744Z,11.08
2023-04-18T09:09:20.849Z,11.23
2023-04-18T09:12:29.864Z,11.31
2023-04-18T09:15:39.003Z,11.37
2023-04-18T09:18:45.428Z,11.45
2023-04-18T09:22:05.010Z,11.36
2023-04-18T09:25:14.571Z,11.45
2023-04-18T09:28:30.429Z,11.30
2023-04-18T09:31:38.913Z,11.23
2023-04-18T09:34:46.036Z,11.33
2023-04-18T09:37:53.624Z,11.27
2023-04-18T09:41:12.105Z,11.33
2023-04-18T09:44:20.509Z,11.41
2023-04-18T09:47:31.219Z,11.48
2023-04-18T09:50:42.103Z,11.60
2023-04-18T09:53:50.513Z,11.44
2023-04-18T09:56:56.809Z,11.52
2023-04-18T10:00:17.454Z,11.56
2023-04-18T10:03:37.357Z,11.56
2023-04-18T10:06:45.945Z,11.64
2023-04-18T10:09:53.032Z,11.67
2023-04-18T10:13:03.254Z,11.72
2023-04-18T10:16:13.061Z,11.55
2023-04-18T10:19:32.875Z,11.78
2023-04-18T10:22:38.518Z,11.92
2023-04-18T10:25:52.812Z,11.99
2023-04-18T10:29:01.165Z,12.00
2023-04-18T10:32:10.094Z,12.13
2023-04-18T10:35:18.698Z,12.42
2023-04-18T10:38:26.744Z,12.61
2023-04-18T10:41:34.464Z,12.48
2023-04-18T10:44:40.870Z,12.66
2023-04-18T10:47:46.710Z,12.58
2023-04-18T10:51:18.821Z,12.65
2023-04-18T10:54:38.041Z,12.75
2023-04-18T10:57:47.463Z,12.81
2023-04-18T11:00:56.716Z,12.69
2023-04-18T11:04:04.339Z,12.71
2023-04-18T11:07:12.773Z,12.73
2023-04-18T11:10:25.680Z,12.77
2023-04-18T11:13:32.078Z,12.85
2023-04-18T11:16:39.009Z,12.95
2023-04-18T11:19:44.521Z,12.96
2023-04-18T11:22:58.100Z,13.01
2023-04-18T11:26:03.638Z,13.07
2023-04-18T11:29:09.969Z,13.19
2023-04-18T11:32:15.668Z,13.24
2023-04-18T11:35:22.309Z,13.20
2023-04-18T11:38:34.128Z,13.26
2023-04-18T11:41:44.625Z,13.31
2023-04-18T11:44:50.654Z,13.40
2023-04-18T11:48:01.533Z,13.41
2023-04-18T11:51:08.181Z,13.64
2023-04-18T11:54:45.997Z,13.75
2023-04-18T11:57:56.794Z,13.79
2023-04-18T12:01:19.285Z,13.78
2023-04-18T12:04:24.954Z,13.78
2023-04-18T12:07:40.743Z,13.77
2023-04-18T12:10:54.983Z,13.82
2023-04-18T12:14:02.558Z,13.81
2023-04-18T12:17:09.582Z,13.90
2023-04-18T12:20:17.098Z,13.94
2023-04-18T12:23:43.172Z,13.71
2023-04-18T12:26:53.066Z,13.71
2023-04-18T12:29:58.605Z,13.73
2023-04-18T12:33:07.282Z,13.74
2023-04-18T12:36:13.236Z,13.81
2023-04-18T12:39:19.592Z,13.87
2023-04-18T12:42:27.818Z,13.97
2023-04-18T12:45:34.436Z,14.11
2023-04-18T12:48:39.965Z,14.26
2023-04-18T12:51:46.823Z,14.42
2023-04-18T12:54:53.030Z,14.48
2023-04-18T12:58:02.407Z,14.56
2023-04-18T13:01:09.560Z,14.50
2023-04-18T13:04:16.341Z,14.53
2023-04-18T13:07:23.019Z,14.58
2023-04-18T13:10:29.507Z,14.59
2023-04-18T13:13:37.807Z,14.73
2023-04-18T13:16:44.296Z,14.75
2023-04-18T13:19:50.132Z,14.76
2023-04-18T13:22:57.666Z,14.83
2023-04-18T13:26:03.928Z,14.84
2023-04-18T13:29:13.292Z,14.86
2023-04-18T13:32:20.445Z,14.74
2023-04-18T13:35:26.823Z,14.74
2023-04-18T13:38:32.721Z,14.77
2023-04-18T13:41:38.995Z,14.78
2023-04-18T13:44:47.423Z,14.45
2023-04-18T13:47:53.923Z,14.26
2023-04-18T13:51:00.305Z,14.20
2023-04-18T13:54:07.173Z,14.16
2023-04-18T13:57:14.985Z,14.26
2023-04-18T14:00:24.647Z,14.18
2023-04-18T14:03:30.466Z,14.26
2023-04-18T14:06:37.034Z,14.37
2023-04-18T14:09:42.688Z,14.36
2023-04-18T14:12:49.512Z,14.39
2023-04-18T14:15:58.770Z,14.48
2023-04-18T14:19:05.478Z,14.50
2023-04-18T14:22:10.985Z,14.48
2023-04-18T14:25:17.526Z,14.33
2023-04-18T14:28:25.290Z,14.29
2023-04-18T14:31:34.739Z,14.16
2023-04-18T14:34:40.375Z,13.84
2023-04-18T14:37:46.915Z,14.00
2023-04-18T14:40:52.388Z,14.01
2023-04-18T14:43:58.812Z,13.84
2023-04-18T14:47:07.229Z,13.92
2023-04-18T14:50:15.668Z,13.94
2023-04-18T14:53:21.529Z,13.87
2023-04-18T14:56:27.942Z,13.91
2023-04-18T14:59:33.446Z,13.85
2023-04-18T15:02:43.044Z,13.61
2023-04-18T15:05:49.530Z,13.36
2023-04-18T15:08:57.034Z,13.29
2023-04-18T15:12:02.527Z,13.29
2023-04-18T15:15:10.319Z,13.24
2023-04-18T15:18:18.526Z,13.32
2023-04-18T15:21:24.826Z,13.26
2023-04-18T15:24:30.399Z,13.32
2023-04-18T15:27:37.072Z,13.45
2023-04-18T15:30:43.034Z,13.25
2023-04-18T15:33:52.216Z,13.35
2023-04-18T15:36:57.699Z,13.36
2023-04-18T15:40:06.233Z,13.30
2023-04-18T15:43:11.708Z,13.22
2023-04-18T15:46:18.221Z,13.27
2023-04-18T15:49:26.641Z,13.24
2023-04-18T15:52:33.141Z,13.16
2023-04-18T15:55:38.776Z,13.14
2023-04-18T15:58:45.355Z,13.07
2023-04-18T16:01:51.391Z,13.10
2023-04-18T16:05:00.547Z,13.06
2023-04-18T16:08:06.592Z,13.03
2023-04-18T16:11:13.492Z,12.94
2023-04-18T16:14:18.955Z,12.92
2023-04-18T16:17:25.362Z,12.86
2023-04-18T16:20:34.069Z,12.88
2023-04-18T16:23:40.393Z,12.83
2023-04-18T16:26:45.914Z,12.86
2023-04-18T16:29:54.059Z,12.89
2023-04-18T16:32:59.774Z,12.84
2023-04-18T16:36:09.535Z,12.54
2023-04-18T16:39:16.117Z,12.28
2023-04-18T16:42:22.520Z,12.21
2023-04-18T16:45:28.285Z,12.11
2023-04-18T16:48:38.011Z,11.96
2023-04-18T16:51:46.224Z,12.00
2023-04-18T16:54:52.832Z,11.99
2023-04-18T16:57:58.689Z,11.84
2023-04-18T17:01:05.248Z,11.76
2023-04-18T17:04:10.756Z,11.62
2023-04-18T17:07:19.966Z,11.55
2023-04-18T17:10:25.822Z,11.45
2023-04-18T17:13:32.880Z,11.20
2023-04-18T17:16:44.034Z,11.26
2023-04-18T17:19:50.423Z,11.20
2023-04-18T17:22:59.237Z,11.23
2023-04-18T17:26:05.771Z,11.20
2023-04-18T17:29:11.328Z,11.06
2023-04-18T17:32:18.126Z,10.92
2023-04-18T17:35:24.000Z,10.92
2023-04-18T17:38:33.183Z,10.87
2023-04-18T17:41:40.973Z,10.77
2023-04-18T17:44:47.356Z,10.76
2023-04-18T17:47:53.119Z,10.72
2023-04-18T17:50:59.500Z,10.72
2023-04-18T17:54:08.431Z,10.66
2023-04-18T17:57:15.239Z,10.51
2023-04-18T18:00:22.188Z,10.47
2023-04-18T18:03:28.807Z,10.46
2023-04-18T18:06:34.867Z,10.48
2023-04-18T18:09:45.687Z,10.31
2023-04-18T18:12:51.231Z,10.32
2023-04-18T18:15:58.708Z,10.24
2023-04-18T18:19:07.809Z,10.29
2023-04-18T18:22:14.145Z,10.25
2023-04-18T18:25:22.823Z,10.27
2023-04-18T18:28:29.270Z,10.09
2023-04-18T18:31:34.811Z,10.13
2023-04-18T18:34:41.179Z,9.92
2023-04-18T18:37:46.899Z,9.89
2023-04-18T18:40:56.045Z,9.92
2023-04-18T18:44:01.609Z,9.87
2023-04-18T18:47:08.052Z,9.83
2023-04-18T18:50:14.046Z,9.84
2023-04-18T18:53:20.590Z,9.79
2023-04-18T18:56:28.896Z,9.73
2023-04-18T18:59:35.298Z,9.61
2023-04-18T19:02:42.041Z,9.61
2023-04-18T19:05:49.370Z,9.49
2023-04-18T19:08:55.314Z,9.49
2023-04-18T19:12:04.834Z,9.48
2023-04-18T19:15:12.795Z,9.43
2023-04-18T19:18:20.337Z,9.35
2023-04-18T19:21:26.453Z,9.28
2023-04-18T19:24:33.067Z,9.14
2023-04-18T19:27:42.086Z,9.07
2023-04-18T19:30:49.023Z,8.95
2023-04-18T19:33:54.903Z,8.77
2023-04-18T19:37:01.579Z,8.65
2023-04-18T19:40:08.032Z,8.50
2023-04-18T19:43:17.977Z,8.59
2023-04-18T19:46:23.814Z,8.56
2023-04-18T19:49:30.671Z,8.56
2023-04-18T19:52:39.814Z,8.53
2023-04-18T19:55:48.436Z,8.57
2023-04-18T19:58:58.210Z,8.61
2023-04-18T20:02:06.416Z,8.67
2023-04-18T20:05:13.196Z,8.73
2023-04-18T20:08:20.017Z,8.75
2023-04-18T20:11:25.657Z,8.77
2023-04-18T20:14:35.916Z,8.81
2023-04-18T20:17:41.563Z,8.85
2023-04-18T20:20:48.220Z,8.76
2023-04-18T20:23:53.710Z,8.76
2023-04-18T20:27:03.342Z,8.80
2023-04-18T20:30:13.567Z,8.83
2023-04-18T20:33:20.214Z,8.83
2023-04-18T20:36:25.772Z,8.84
2023-04-18T20:39:32.873Z,8.80
2023-04-18T20:42:39.153Z,8.77
2023-04-18T20:45:51.393Z,8.77
2023-04-18T20:48:57.507Z,8.81
2023-04-18T20:52:03.938Z,8.88
2023-04-18T20:55:10.241Z,8.95
2023-04-18T20:58:17.108Z,9.00
2023-04-18T21:01:26.242Z,9.07
2023-04-18T21:04:33.304Z,9.09
2023-04-18T21:07:39.926Z,9.07
2023-04-18T21:10:46.285Z,9.05
2023-04-18T21:13:52.030Z,9.07
2023-04-18T21:17:02.053Z,9.12
2023-04-18T21:20:09.494Z,9.17
2023-04-18T21:23:15.856Z,9.22
2023-04-18T21:26:21.557Z,9.24
2023-04-18T21:29:28.166Z,9.29
2023-04-18T21:32:36.716Z,9.28
2023-04-18T21:35:43.155Z,9.27
2023-04-18T21:38:48.646Z,9.25
2023-04-18T21:41:54.997Z,9.24
2023-04-18T21:45:00.454Z,9.21
2023-04-18T21:48:12.206Z,9.19
2023-04-18T21:51:19.932Z,9.18
2023-04-18T21:54:26.330Z,9.19
2023-04-18T21:57:31.969Z,9.21
2023-04-18T22:00:38.603Z,9.18
2023-04-18T22:03:47.914Z,9.18
2023-04-18T22:06:54.727Z,9.13
2023-04-18T22:10:00.724Z,9.15
2023-04-18T22:13:07.823Z,9.15
2023-04-18T22:16:13.909Z,9.15
2023-04-18T22:19:25.081Z,9.16
2023-04-18T22:22:30.824Z,9.14
2023-04-18T22:25:38.021Z,9.15
2023-04-18T22:28:43.489Z,9.12
2023-04-18T22:31:50.384Z,9.12
2023-04-18T22:34:58.872Z,9.04
2023-04-18T22:38:05.279Z,9.01
2023-04-18T22:41:11.224Z,9.00
2023-04-18T22:44:20.016Z,9.00
2023-04-18T22:47:25.716Z,8.96
2023-04-18T22:50:38.100Z,8.95
2023-04-18T22:53:43.626Z,8.95
2023-04-18T22:56:51.199Z,8.93
2023-04-18T22:59:56.878Z,8.93
2023-04-18T23:03:03.493Z,8.92
2023-04-18T23:06:12.958Z,8.91
2023-04-18T23:09:19.957Z,8.95
2023-04-18T23:12:25.457Z,8.94
2023-04-18T23:15:31.863Z,8.94
2023-04-18T23:18:37.407Z,8.91
2023-04-18T23:21:47.720Z,8.88
2023-04-18T23:24:55.056Z,8.89
2023-04-18T23:28:01.352Z,8.89
2023-04-18T23:31:07.001Z,8.82
2023-04-18T23:34:14.006Z,8.79
2023-04-18T23:37:22.594Z,8.74
2023-04-18T23:40:29.131Z,8.67
2023-04-18T23:43:34.666Z,8.64
2023-04-18T23:46:41.148Z,8.55
2023-04-18T23:49:46.631Z,8.47
2023-04-18T23:52:55.855Z,8.45
2023-04-18T23:56:01.309Z,8.44
2023-04-18T23:59:07.635Z,8.43
